Weather at Sydney Kingsford Smith International Airport

Public forecast

Using degrees Celsius for public forecast. Weather courtesy of forecast.io.

Current aviation weather report (METAR) for Sydney Kingsford Smith International Airport

Retrieved 2021/12/04 00:30 UTC (11 minutes ago):

YSSY 040030Z 18019KT 9999 BKN012 BKN015 OVC022 19/17 Q1014

Aviation forecast (TAF) for Sydney Kingsford Smith International Airport

Forecast is more than 6 hours old.

Retrieved 2021/12/03 18:00 UTC (7 hours ago):

TAF YSSY 031707Z 0318/0500 19012KT 9999 -DZ BKN010 FM040000 18014KT 9999 -DZ BKN012 FM040200 17020G30KT 9999 NSW BKN020 FM040800 17016KT 9999 BKN020 FM041500 17014KT 9999 BKN015 FM042200 17016KT 9999 SCT015 BKN025 TEMPO 0318/0402 4000 DZ BKN008